Time;durP1;ratioP1;P1;durP2;ratioP2;P2;SDS_P1;SDS_P2;PMS_P1;PMS_P2;Temp;Humidity;BMP_temperature;BMP_pressure;BME280_temperature;BME280_humidity;BME280_pressure;Samples;Min_cycle;Max_cycle;Signal;HPM_P1;HPM_P2
2021/07/20 00:00:43;;;;;;;0.70;0.70;;;18.60;99.90;;;;;;5090145;28;20196;-69
2021/07/20 00:03:12;;;;;;;2.13;0.68;;;18.60;99.90;;;;;;5086496;28;20184;-69
2021/07/20 00:05:39;;;;;;;0.93;0.93;;;18.60;99.90;;;;;;5068696;28;20176;-68
2021/07/20 00:08:08;;;;;;;0.28;0.28;;;18.60;99.90;;;;;;5087669;28;20270;-69
2021/07/20 00:10:42;;;;;;;0.70;0.65;;;18.40;99.90;;;;;;5088390;28;20203;-69
2021/07/20 00:13:09;;;;;;;0.22;0.22;;;18.50;99.90;;;;;;5089550;28;20151;-69
2021/07/20 00:15:37;;;;;;;0.20;0.20;;;18.50;99.90;;;;;;5089831;28;20152;-69
2021/07/20 00:18:11;;;;;;;0.85;0.40;;;18.60;99.90;;;;;;5089713;28;20156;-68
2021/07/20 00:20:38;;;;;;;0.57;0.20;;;18.60;99.90;;;;;;5089676;28;20190;-69
2021/07/20 00:23:06;;;;;;;3.00;0.63;;;18.60;99.90;;;;;;5089677;28;20156;-69
2021/07/20 00:25:32;;;;;;;0.75;0.52;;;18.60;99.90;;;;;;5089110;28;20196;-69
2021/07/20 00:27:59;;;;;;;0.30;0.30;;;18.50;99.90;;;;;;5087975;28;20199;-68
2021/07/20 00:30:25;;;;;;;1.75;0.77;;;18.50;99.90;;;;;;5089044;28;20239;-68
2021/07/20 00:32:51;;;;;;;0.20;0.20;;;18.50;99.90;;;;;;5089272;28;20163;-68
2021/07/20 00:35:16;;;;;;;0.47;0.38;;;18.60;99.90;;;;;;5087364;28;20217;-68
2021/07/20 00:37:43;;;;;;;0.10;0.10;;;18.70;99.90;;;;;;5089310;28;20153;-68
2021/07/20 00:40:14;;;;;;;0.08;0.08;;;18.70;99.90;;;;;;5087941;28;20262;-68
2021/07/20 00:42:43;;;;;;;0.52;0.43;;;18.70;99.90;;;;;;5089372;28;20162;-68
2021/07/20 00:45:12;;;;;;;0.30;0.30;;;18.60;99.90;;;;;;5089065;28;20251;-68
2021/07/20 00:47:38;;;;;;;0.60;0.60;;;18.60;99.90;;;;;;5087744;28;20697;-68
2021/07/20 00:50:07;;;;;;;0.40;0.40;;;18.50;99.90;;;;;;5089193;28;20152;-69
2021/07/20 00:52:34;;;;;;;0.05;0.05;;;18.50;99.90;;;;;;5089268;28;20184;-68
2021/07/20 00:55:03;;;;;;;0.55;0.55;;;18.40;99.90;;;;;;5088492;28;20192;-68
2021/07/20 00:57:56;;;;;;;0.45;0.30;;;18.50;99.90;;;;;;5087914;28;20179;-68
2021/07/20 01:00:23;;;;;;;0.73;0.73;;;18.50;99.90;;;;;;5089056;28;20160;-68
2021/07/20 01:03:27;;;;;;;0.57;0.52;;;18.50;99.90;;;;;;5087771;28;20176;-68
2021/07/20 01:05:53;;;;;;;0.28;0.28;;;18.50;99.90;;;;;;5088461;28;20202;-68
2021/07/20 01:08:20;;;;;;;11.38;0.77;;;18.50;99.90;;;;;;5089027;28;20188;-68
2021/07/20 01:10:47;;;;;;;0.10;0.10;;;18.60;99.90;;;;;;5089044;28;20160;-68
2021/07/20 01:13:14;;;;;;;0.52;0.52;;;18.60;99.90;;;;;;5087733;28;20167;-68
2021/07/20 01:15:41;;;;;;;0.38;0.38;;;18.70;99.90;;;;;;5088361;28;20259;-68
2021/07/20 01:18:07;;;;;;;0.45;0.28;;;18.70;99.90;;;;;;5089005;28;20250;-68
2021/07/20 01:20:33;;;;;;;0.68;0.30;;;18.80;99.90;;;;;;5088956;28;20164;-68
2021/07/20 01:23:01;;;;;;;0.20;0.20;;;18.80;99.90;;;;;;5088561;28;20243;-69
2021/07/20 01:25:27;;;;;;;0.17;0.17;;;18.90;99.90;;;;;;5088374;28;20210;-68
2021/07/20 01:27:57;;;;;;;0.70;0.70;;;18.80;99.90;;;;;;5088810;28;20156;-68
2021/07/20 01:30:22;;;;;;;1.30;0.22;;;18.70;99.90;;;;;;5088838;28;20245;-69
2021/07/20 01:32:51;;;;;;;0.15;0.15;;;18.60;99.90;;;;;;5088885;28;20213;-68
2021/07/20 01:35:18;;;;;;;0.10;0.10;;;18.50;99.90;;;;;;5088182;28;20196;-69
2021/07/20 01:37:45;;;;;;;0.32;0.32;;;18.40;99.90;;;;;;5088774;28;20172;-68
2021/07/20 01:40:12;;;;;;;0.30;0.30;;;18.50;99.90;;;;;;5088977;28;20247;-68
2021/07/20 01:42:43;;;;;;;1.23;0.82;;;18.50;99.90;;;;;;5088829;28;20189;-68
2021/07/20 01:45:09;;;;;;;0.50;0.40;;;18.50;99.90;;;;;;5088026;28;20195;-69
2021/07/20 01:47:37;;;;;;;6.65;1.10;;;18.50;99.90;;;;;;5088439;28;20219;-68
2021/07/20 01:50:04;;;;;;;0.30;0.30;;;18.40;99.90;;;;;;5087204;28;20280;-68
2021/07/20 01:52:32;;;;;;;0.00;0.00;;;18.40;99.90;;;;;;5088687;28;20171;-69
2021/07/20 01:54:59;;;;;;;0.40;0.40;;;18.40;99.90;;;;;;5088625;28;20200;-69
2021/07/20 01:57:26;;;;;;;0.85;0.77;;;18.50;99.90;;;;;;5088606;28;20161;-69
2021/07/20 01:59:54;;;;;;;2.20;2.00;;;18.40;99.90;;;;;;5088649;28;20165;-68
2021/07/20 02:02:37;;;;;;;8.98;0.73;;;18.50;99.90;;;;;;5088526;28;20153;-68
2021/07/20 02:10:37;;;;;;;0.10;0.10;;;18.60;99.90;;;;;;5088388;28;20213;-68
2021/07/20 02:13:05;;;;;;;0.65;0.47;;;18.60;99.90;;;;;;5088489;28;20151;-69
2021/07/20 02:15:35;;;;;;;0.43;0.43;;;18.70;99.90;;;;;;5087810;28;20192;-68
2021/07/20 02:18:02;;;;;;;14.02;0.35;;;18.70;99.90;;;;;;5088451;28;20168;-69
2021/07/20 02:20:30;;;;;;;0.50;0.50;;;18.70;99.90;;;;;;5088319;28;20156;-69
2021/07/20 02:22:58;;;;;;;0.20;0.20;;;18.60;99.90;;;;;;5088350;28;20190;-68
2021/07/20 02:25:27;;;;;;;0.28;0.28;;;18.60;99.90;;;;;;5088430;28;20619;-68
2021/07/20 02:27:54;;;;;;;0.32;0.30;;;18.50;99.90;;;;;;5088258;28;20173;-69
2021/07/20 02:30:20;;;;;;;0.65;0.65;;;18.50;99.90;;;;;;5086976;28;20235;-69
2021/07/20 02:32:48;;;;;;;0.30;0.30;;;18.50;99.90;;;;;;5088111;28;20160;-68
2021/07/20 02:35:29;;;;;;;0.10;0.10;;;18.60;99.90;;;;;;5088708;28;20272;-68
2021/07/20 02:37:56;;;;;;;0.52;0.52;;;18.60;99.90;;;;;;5091688;28;20194;-69
2021/07/20 02:40:24;;;;;;;0.28;0.15;;;18.60;99.90;;;;;;5091769;28;20161;-68
2021/07/20 02:42:56;;;;;;;4.40;0.40;;;18.50;99.90;;;;;;5091723;28;20156;-68
2021/07/20 02:45:22;;;;;;;0.50;0.50;;;18.60;99.90;;;;;;5090971;28;20358;-69
2021/07/20 02:47:50;;;;;;;1.15;1.15;;;18.70;99.90;;;;;;5091410;28;20676;-69
2021/07/20 02:50:17;;;;;;;0.30;0.30;;;18.60;99.90;;;;;;5091525;28;20157;-68
2021/07/20 02:52:46;;;;;;;0.08;0.08;;;18.60;99.90;;;;;;5091445;28;20152;-69
2021/07/20 02:55:16;;;;;;;3.20;1.13;;;18.50;99.90;;;;;;5091346;28;20320;-69
2021/07/20 02:57:43;;;;;;;0.38;0.38;;;18.60;99.90;;;;;;5090066;28;20171;-69
2021/07/20 03:00:11;;;;;;;0.68;0.50;;;18.50;99.90;;;;;;5091178;28;20259;-69
2021/07/20 03:02:44;;;;;;;0.35;0.35;;;18.50;99.90;;;;;;5089936;28;20175;-69
2021/07/20 03:05:14;;;;;;;1.38;0.65;;;18.50;99.90;;;;;;5090652;28;20195;-68
2021/07/20 03:07:45;;;;;;;0.30;0.30;;;18.50;99.90;;;;;;5089995;28;20199;-68
2021/07/20 03:10:12;;;;;;;0.13;0.13;;;18.30;99.90;;;;;;5091107;28;20174;-69
2021/07/20 03:12:42;;;;;;;0.25;0.25;;;18.20;99.90;;;;;;5090998;28;20160;-69
2021/07/20 03:15:09;;;;;;;0.28;0.28;;;18.30;99.90;;;;;;5090556;28;20623;-68
2021/07/20 03:17:36;;;;;;;0.43;0.43;;;18.30;99.90;;;;;;5091139;28;20179;-68
2021/07/20 03:20:04;;;;;;;1.27;0.52;;;18.30;99.90;;;;;;5090888;28;20183;-69
2021/07/20 03:22:32;;;;;;;1.27;0.80;;;18.40;99.90;;;;;;5089631;28;20172;-69
2021/07/20 03:25:02;;;;;;;0.52;0.52;;;18.40;99.90;;;;;;5090833;28;20255;-69
2021/07/20 03:27:31;;;;;;;4.78;1.50;;;18.40;99.90;;;;;;5089447;28;20172;-68
2021/07/20 03:30:00;;;;;;;0.63;0.63;;;18.40;99.90;;;;;;5090462;28;20217;-68
2021/07/20 03:32:28;;;;;;;0.50;0.50;;;18.40;99.90;;;;;;5090845;28;20157;-68
2021/07/20 03:34:55;;;;;;;0.80;0.57;;;18.40;99.90;;;;;;5090062;28;20210;-68
2021/07/20 03:37:22;;;;;;;0.43;0.30;;;18.50;99.90;;;;;;5089222;28;20272;-69
2021/07/20 03:39:52;;;;;;;0.47;0.47;;;18.50;99.90;;;;;;5089338;28;20237;-68
2021/07/20 03:42:21;;;;;;;0.40;0.40;;;18.50;99.90;;;;;;5090501;28;20540;-68
2021/07/20 03:44:48;;;;;;;0.20;0.20;;;18.50;99.90;;;;;;5089823;28;20166;-68
2021/07/20 03:47:16;;;;;;;0.40;0.40;;;18.50;99.90;;;;;;5089387;28;20298;-68
2021/07/20 03:49:43;;;;;;;16.60;0.65;;;18.60;99.90;;;;;;5090224;28;20196;-69
2021/07/20 03:52:12;;;;;;;0.20;0.20;;;18.70;99.90;;;;;;5090278;28;20176;-69
2021/07/20 03:54:39;;;;;;;0.28;0.28;;;18.70;99.90;;;;;;5090119;28;20165;-68
2021/07/20 03:57:07;;;;;;;0.57;0.57;;;18.70;99.90;;;;;;5089603;28;20199;-68
2021/07/20 03:59:34;;;;;;;0.25;0.25;;;18.80;99.90;;;;;;5090046;28;20164;-69
2021/07/20 04:02:02;;;;;;;0.20;0.20;;;18.80;99.90;;;;;;5090104;28;20164;-69
2021/07/20 04:04:38;;;;;;;0.88;0.85;;;18.90;99.90;;;;;;5088859;28;20191;-69
2021/07/20 04:07:06;;;;;;;0.30;0.30;;;18.80;99.90;;;;;;5089376;28;20207;-69
2021/07/20 04:09:34;;;;;;;1.00;0.90;;;18.90;99.90;;;;;;5089799;28;20191;-69
2021/07/20 04:12:01;;;;;;;0.25;0.25;;;18.80;99.90;;;;;;5089889;28;20152;-69
2021/07/20 04:14:27;;;;;;;0.10;0.10;;;18.80;99.90;;;;;;5089909;28;20214;-69
2021/07/20 04:16:53;;;;;;;0.88;0.82;;;18.90;99.90;;;;;;5089732;28;20203;-69
2021/07/20 04:19:20;;;;;;;0.60;0.45;;;18.80;99.90;;;;;;5089796;28;20156;-69
2021/07/20 04:21:46;;;;;;;0.47;0.47;;;18.80;99.90;;;;;;5089621;28;20247;-69
2021/07/20 04:24:13;;;;;;;0.22;0.22;;;18.90;99.90;;;;;;5089723;28;20164;-69
2021/07/20 04:26:42;;;;;;;0.40;0.40;;;19.00;99.90;;;;;;5089008;28;20207;-69
2021/07/20 04:29:08;;;;;;;1.45;0.30;;;19.10;99.90;;;;;;5089348;28;20198;-69
2021/07/20 04:31:38;;;;;;;0.00;0.00;;;19.10;99.90;;;;;;5089413;28;20594;-69
2021/07/20 04:34:04;;;;;;;0.47;0.47;;;19.10;99.90;;;;;;5089269;28;20156;-68
2021/07/20 04:36:31;;;;;;;8.25;0.93;;;19.10;99.90;;;;;;5088953;28;20200;-68
2021/07/20 04:38:58;;;;;;;1.40;0.68;;;19.20;99.90;;;;;;5089449;28;20190;-69
2021/07/20 04:41:24;;;;;;;0.45;0.35;;;19.20;99.90;;;;;;5089391;28;20247;-69
2021/07/20 04:43:50;;;;;;;0.65;0.63;;;19.30;99.90;;;;;;5089339;28;20195;-69
2021/07/20 04:46:20;;;;;;;0.43;0.43;;;19.40;99.90;;;;;;5088896;28;20227;-68
2021/07/20 04:48:47;;;;;;;2.47;1.20;;;19.60;99.90;;;;;;5089141;28;20188;-69
2021/07/20 04:51:13;;;;;;;0.35;0.35;;;19.70;99.90;;;;;;5087653;28;20168;-68
2021/07/20 04:53:40;;;;;;;0.20;0.20;;;19.70;99.90;;;;;;5089087;28;20617;-69
2021/07/20 04:56:07;;;;;;;1.15;0.50;;;19.60;99.90;;;;;;5088137;28;20299;-69
2021/07/20 04:58:34;;;;;;;4.45;1.08;;;19.60;99.90;;;;;;5089009;28;20153;-69
2021/07/20 05:01:02;;;;;;;0.60;0.60;;;20.00;99.90;;;;;;5089182;28;20653;-68
2021/07/20 05:03:31;;;;;;;0.28;0.28;;;20.30;99.90;;;;;;5089026;28;20187;-69
2021/07/20 05:05:58;;;;;;;0.73;0.73;;;21.40;99.90;;;;;;5088589;28;20198;-69
2021/07/20 05:08:27;;;;;;;11.95;1.85;;;22.90;99.90;;;;;;5087376;28;20205;-69
2021/07/20 05:10:55;;;;;;;3.88;0.93;;;24.20;99.90;;;;;;5088776;28;20150;-69
2021/07/20 05:13:22;;;;;;;0.40;0.35;;;25.00;99.90;;;;;;5088723;28;20162;-69
2021/07/20 05:16:01;;;;;;;1.52;0.98;;;25.30;99.90;;;;;;5088587;28;20221;-69
2021/07/20 05:18:27;;;;;;;0.15;0.15;;;24.60;99.90;;;;;;5088714;28;20208;-69
2021/07/20 05:20:59;;;;;;;2.58;1.45;;;23.70;99.90;;;;;;5088594;28;20156;-69
2021/07/20 05:23:26;;;;;;;1.08;1.05;;;22.80;99.90;;;;;;5088436;28;20163;-69
2021/07/20 05:25:55;;;;;;;1.65;1.48;;;23.00;99.90;;;;;;5087951;28;20202;-69
2021/07/20 05:28:24;;;;;;;0.57;0.45;;;23.60;99.90;;;;;;5088568;28;20188;-69
2021/07/20 05:30:54;;;;;;;0.65;0.65;;;24.20;99.90;;;;;;5088763;28;20219;-68
2021/07/20 05:33:21;;;;;;;3.65;0.30;;;24.60;99.90;;;;;;5088690;28;20156;-69
2021/07/20 05:35:56;;;;;;;28.60;0.75;;;24.50;99.90;;;;;;5088610;28;20702;-69
2021/07/20 05:38:24;;;;;;;1.05;0.95;;;24.00;99.90;;;;;;5088618;28;20183;-68
2021/07/20 05:40:52;;;;;;;0.30;0.30;;;23.00;99.90;;;;;;5088521;28;20223;-69
2021/07/20 05:43:19;;;;;;;3.70;1.90;;;22.10;99.90;;;;;;5087262;28;20198;-69
2021/07/20 05:45:47;;;;;;;0.28;0.28;;;21.50;99.90;;;;;;5087379;28;20191;-69
2021/07/20 05:48:21;;;;;;;10.68;1.73;;;21.20;99.90;;;;;;5088254;28;20215;-69
2021/07/20 05:50:51;;;;;;;0.93;0.93;;;20.80;99.90;;;;;;5087189;28;20159;-69
2021/07/20 05:53:19;;;;;;;0.25;0.25;;;20.80;99.90;;;;;;5088649;28;20160;-69
2021/07/20 05:55:51;;;;;;;0.38;0.38;;;21.00;99.90;;;;;;5088208;28;20648;-69
2021/07/20 05:58:21;;;;;;;0.30;0.30;;;20.90;99.90;;;;;;5088287;28;20167;-69
2021/07/20 06:00:48;;;;;;;1.25;0.65;;;21.00;99.90;;;;;;5088274;28;20202;-68
2021/07/20 06:03:17;;;;;;;1.27;0.90;;;20.90;99.90;;;;;;5088191;28;20153;-68
2021/07/20 06:05:50;;;;;;;0.77;0.77;;;20.60;99.90;;;;;;5088320;28;20171;-68
2021/07/20 06:08:18;;;;;;;0.32;0.32;;;20.30;99.90;;;;;;5087323;28;20222;-68
2021/07/20 06:10:52;;;;;;;0.10;0.10;;;20.10;99.90;;;;;;5088813;28;20168;-68
2021/07/20 06:13:20;;;;;;;0.45;0.45;;;19.80;99.90;;;;;;5091889;28;20234;-68
2021/07/20 06:15:49;;;;;;;2.05;1.92;;;19.60;99.90;;;;;;5091644;28;20149;-68
2021/07/20 06:18:15;;;;;;;0.85;0.63;;;19.30;99.90;;;;;;5091242;28;20202;-68
2021/07/20 06:20:55;;;;;;;0.85;0.73;;;19.10;99.90;;;;;;5091827;28;20163;-68
2021/07/20 06:23:23;;;;;;;0.30;0.30;;;18.90;99.90;;;;;;5092007;28;20198;-68
2021/07/20 06:25:51;;;;;;;2.72;0.95;;;18.80;99.90;;;;;;5091786;28;20172;-67
2021/07/20 06:28:20;;;;;;;0.20;0.20;;;18.70;99.90;;;;;;5091226;28;20298;-68
2021/07/20 06:30:47;;;;;;;0.85;0.85;;;18.70;99.90;;;;;;5091625;28;20156;-68
2021/07/20 06:33:14;;;;;;;4.90;2.28;;;18.70;99.90;;;;;;5091487;28;20179;-68
2021/07/20 06:35:43;;;;;;;3.53;0.98;;;18.80;99.90;;;;;;5091733;28;20244;-68
2021/07/20 06:38:17;;;;;;;0.20;0.20;;;18.70;99.90;;;;;;5090890;28;20199;-68
2021/07/20 06:40:49;;;;;;;6.88;3.58;;;18.70;99.90;;;;;;5091675;28;20183;-68
2021/07/20 06:43:16;;;;;;;1.27;1.20;;;18.80;99.90;;;;;;5091145;28;20224;-68
2021/07/20 06:45:46;;;;;;;4.13;1.02;;;18.80;99.90;;;;;;5091196;28;20199;-68
2021/07/20 06:48:14;;;;;;;0.43;0.43;;;18.90;99.90;;;;;;5089291;28;20298;-68
2021/07/20 06:50:41;;;;;;;7.22;3.13;;;19.20;99.90;;;;;;5091405;28;20152;-68
2021/07/20 06:53:09;;;;;;;0.70;0.70;;;19.30;99.90;;;;;;5091380;28;20176;-68
2021/07/20 06:55:43;;;;;;;0.63;0.63;;;19.50;99.90;;;;;;5091254;28;20156;-68
2021/07/20 06:58:13;;;;;;;2.97;0.65;;;19.70;99.90;;;;;;5091075;28;20282;-68
2021/07/20 07:00:43;;;;;;;2.55;1.92;;;19.90;99.90;;;;;;5091308;28;20199;-68
2021/07/20 07:03:10;;;;;;;0.75;0.32;;;20.20;99.90;;;;;;5091100;28;20168;-68
2021/07/20 07:05:36;;;;;;;1.45;0.50;;;20.50;99.90;;;;;;5091248;28;20160;-68
2021/07/20 07:08:03;;;;;;;0.47;0.47;;;20.90;99.90;;;;;;5089118;28;20199;-68
2021/07/20 07:10:30;;;;;;;0.70;0.70;;;21.30;99.90;;;;;;5091230;28;20235;-68
2021/07/20 07:12:57;;;;;;;0.80;0.38;;;21.70;99.90;;;;;;5091157;28;20163;-68
2021/07/20 07:15:23;;;;;;;0.32;0.32;;;22.30;99.90;;;;;;5090963;28;20152;-69
2021/07/20 07:17:51;;;;;;;0.88;0.82;;;23.50;99.90;;;;;;5090355;28;20679;-68
2021/07/20 07:20:24;;;;;;;2.40;0.85;;;24.50;99.90;;;;;;5090760;28;20179;-68
2021/07/20 07:22:50;;;;;;;2.63;1.77;;;24.50;99.90;;;;;;5089607;28;20155;-68
2021/07/20 07:25:18;;;;;;;0.10;0.10;;;26.30;99.90;;;;;;5090780;28;20151;-68
2021/07/20 07:27:45;;;;;;;1.08;0.57;;;27.80;99.90;;;;;;5079181;28;20563;-68
2021/07/20 07:30:11;;;;;;;1.27;1.05;;;29.30;99.90;;;;;;5088094;28;20183;-68
2021/07/20 07:32:38;;;;;;;0.10;0.10;;;29.70;99.90;;;;;;5070740;28;20155;-68
2021/07/20 07:35:06;;;;;;;0.43;0.43;;;30.10;99.90;;;;;;5076912;28;20160;-68
2021/07/20 07:37:35;;;;;;;0.43;0.32;;;31.10;99.90;;;;;;5088727;28;20217;-68
2021/07/20 07:40:03;;;;;;;0.17;0.17;;;32.30;99.90;;;;;;5090476;28;20643;-68
2021/07/20 07:42:30;;;;;;;0.73;0.52;;;32.00;99.90;;;;;;5090407;28;20231;-69
2021/07/20 07:44:57;;;;;;;0.63;0.30;;;31.60;99.90;;;;;;5090309;28;20167;-69
2021/07/20 07:47:24;;;;;;;0.28;0.28;;;31.00;99.90;;;;;;5090105;28;20230;-68
2021/07/20 07:49:51;;;;;;;0.28;0.28;;;29.90;99.90;;;;;;5090000;28;20179;-68
2021/07/20 07:52:17;;;;;;;1.05;0.95;;;28.50;99.90;;;;;;5090178;28;20177;-68
2021/07/20 07:54:47;;;;;;;0.50;0.50;;;27.80;99.90;;;;;;5088818;28;20167;-68
2021/07/20 07:57:15;;;;;;;2.72;0.45;;;26.90;99.90;;;;;;5089661;28;20183;-68
2021/07/20 07:59:42;;;;;;;0.00;0.00;;;27.00;99.90;;;;;;5088870;28;20172;-69
2021/07/20 08:02:13;;;;;;;0.73;0.63;;;26.20;99.90;;;;;;5088561;28;20176;-69
2021/07/20 08:04:43;;;;;;;0.52;0.45;;;26.40;99.90;;;;;;5089832;28;20177;-69
2021/07/20 08:07:10;;;;;;;0.20;0.20;;;26.10;99.90;;;;;;5089795;28;20155;-69
2021/07/20 08:09:38;;;;;;;0.57;0.57;;;26.60;99.90;;;;;;5089775;28;20273;-69
2021/07/20 08:12:06;;;;;;;0.45;0.45;;;26.50;99.90;;;;;;5089783;28;20148;-69
2021/07/20 08:14:32;;;;;;;1.95;1.02;;;26.90;99.90;;;;;;5088427;28;20163;-69
2021/07/20 08:17:04;;;;;;;2.72;0.80;;;27.20;99.90;;;;;;5089514;28;20243;-69
2021/07/20 08:19:31;;;;;;;0.10;0.10;;;28.00;99.90;;;;;;5087788;28;20203;-69
2021/07/20 08:22:01;;;;;;;0.15;0.10;;;28.90;99.90;;;;;;5089372;28;20152;-69
2021/07/20 08:24:33;;;;;;;1.08;0.75;;;28.20;99.90;;;;;;5088243;28;20206;-69
2021/07/20 08:27:22;;;;;;;0.30;0.30;;;27.40;99.90;;;;;;5089381;28;20183;-69
2021/07/20 08:29:51;;;;;;;0.20;0.15;;;26.80;99.90;;;;;;5089235;28;20215;-69
2021/07/20 08:32:21;;;;;;;0.20;0.20;;;27.10;99.90;;;;;;5089188;28;20264;-69
2021/07/20 08:35:23;;;;;;;0.28;0.28;;;27.20;99.90;;;;;;5095899;28;20174;-69
2021/07/20 08:37:52;;;;;;;0.22;0.22;;;28.10;99.90;;;;;;5083621;28;20232;-69
2021/07/20 08:40:49;;;;;;;0.30;0.30;;;30.40;99.90;;;;;;5050436;28;20204;-69
2021/07/20 08:43:48;;;;;;;1.10;0.70;;;32.00;99.90;;;;;;5067256;28;20178;-70
2021/07/20 08:46:33;;;;;;;2.05;0.85;;;30.90;99.90;;;;;;5050186;28;20168;-71
2021/07/20 08:49:11;;;;;;;0.55;0.50;;;31.30;99.90;;;;;;5066769;28;20226;-70
2021/07/20 08:51:55;;;;;;;0.25;0.25;;;30.50;99.90;;;;;;5050301;28;20168;-70
2021/07/20 08:54:28;;;;;;;2.03;1.20;;;31.00;99.90;;;;;;5066869;28;20188;-70
2021/07/20 08:57:00;;;;;;;1.50;1.13;;;31.60;99.90;;;;;;5066857;28;20184;-71
2021/07/20 08:59:37;;;;;;;0.20;0.20;;;32.10;99.90;;;;;;5066309;28;20339;-71
2021/07/20 09:02:23;;;;;;;0.30;0.28;;;33.90;99.90;;;;;;5066861;28;20195;-71
2021/07/20 09:05:08;;;;;;;0.35;0.35;;;35.40;99.90;;;;;;5066944;28;20192;-68
2021/07/20 09:07:40;;;;;;;1.75;0.93;;;34.70;99.90;;;;;;5066641;28;20188;-70
2021/07/20 09:10:12;;;;;;;0.40;0.40;;;33.40;99.90;;;;;;5031700;28;20195;-70
2021/07/20 09:12:44;;;;;;;0.38;0.38;;;32.60;99.90;;;;;;5030373;28;20175;-70
2021/07/20 09:15:20;;;;;;;0.60;0.60;;;32.20;99.90;;;;;;5031021;28;20189;-69
2021/07/20 09:18:00;;;;;;;0.30;0.30;;;32.90;99.90;;;;;;5029098;28;20169;-69
2021/07/20 09:20:32;;;;;;;1.48;0.98;;;32.90;99.90;;;;;;5028621;28;20158;-69
2021/07/20 09:23:35;;;;;;;0.30;0.30;;;32.10;99.90;;;;;;5028379;28;20162;-69
2021/07/20 09:26:19;;;;;;;0.57;0.57;;;32.20;99.90;;;;;;5028389;28;20172;-69
2021/07/20 09:29:02;;;;;;;0.65;0.50;;;32.00;99.90;;;;;;5042802;28;20200;-70
2021/07/20 09:31:37;;;;;;;0.20;0.20;;;32.90;99.90;;;;;;5067454;28;20687;-69
2021/07/20 09:34:15;;;;;;;0.32;0.28;;;33.70;99.90;;;;;;5066810;28;20178;-68
2021/07/20 09:37:11;;;;;;;0.20;0.20;;;33.30;99.90;;;;;;5028837;28;20153;-68
2021/07/20 09:39:54;;;;;;;5.10;0.68;;;34.30;99.90;;;;;;5056419;28;20211;-68
2021/07/20 09:42:40;;;;;;;1.45;0.65;;;34.70;99.90;;;;;;5068450;28;20165;-69
2021/07/20 09:45:21;;;;;;;0.73;0.73;;;34.60;99.90;;;;;;5069444;28;20171;-68
2021/07/20 09:48:22;;;;;;;0.40;0.40;;;33.80;99.90;;;;;;5087851;28;20238;-68
2021/07/20 09:51:01;;;;;;;0.32;0.32;;;32.50;99.90;;;;;;5092510;28;20536;-68
2021/07/20 09:53:51;;;;;;;0.47;0.45;;;32.00;98.10;;;;;;5092413;28;20296;-69
2021/07/20 09:57:00;;;;;;;1.98;0.70;;;33.50;98.60;;;;;;5090985;28;20171;-69
2021/07/20 09:59:32;;;;;;;0.82;0.47;;;32.80;98.20;;;;;;5090336;28;20271;-68
2021/07/20 10:02:01;;;;;;;1.17;0.22;;;31.90;99.70;;;;;;5092196;28;20156;-69
2021/07/20 10:04:50;;;;;;;2.05;0.50;;;30.50;99.90;;;;;;5092152;28;20229;-68
2021/07/20 10:07:38;;;;;;;1.65;0.82;;;30.60;99.90;;;;;;5090954;28;20574;-69
2021/07/20 10:10:14;;;;;;;0.13;0.13;;;32.30;99.90;;;;;;5091767;28;20195;-69
2021/07/20 10:13:02;;;;;;;0.52;0.52;;;33.80;99.90;;;;;;5092072;28;20159;-69
2021/07/20 10:15:50;;;;;;;1.40;0.40;;;33.70;98.70;;;;;;5090706;28;20171;-69
2021/07/20 10:18:42;;;;;;;0.20;0.20;;;33.90;96.30;;;;;;5091404;28;20181;-68
2021/07/20 10:21:13;;;;;;;0.80;0.55;;;31.30;98.20;;;;;;5090585;28;20209;-69
2021/07/20 10:24:15;;;;;;;0.50;0.50;;;30.60;99.60;;;;;;5091858;28;20156;-68
2021/07/20 10:26:53;;;;;;;5.63;1.30;;;29.90;98.80;;;;;;5082586;28;20266;-68
2021/07/20 10:29:36;;;;;;;1.95;0.73;;;30.20;98.30;;;;;;5091525;28;20207;-68
2021/07/20 10:32:22;;;;;;;0.45;0.45;;;30.70;97.40;;;;;;5091684;28;20159;-69
2021/07/20 10:34:54;;;;;;;0.35;0.32;;;31.70;99.90;;;;;;5095237;28;20229;-68
2021/07/20 10:37:24;;;;;;;0.75;0.75;;;31.50;98.90;;;;;;5090092;28;20202;-69
2021/07/20 10:40:05;;;;;;;1.10;0.80;;;30.70;97.80;;;;;;5091003;28;20199;-68
2021/07/20 10:43:05;;;;;;;2.00;1.00;;;29.40;98.50;;;;;;5091481;28;20535;-69
2021/07/20 10:45:34;;;;;;;2.38;1.80;;;29.40;98.90;;;;;;5091538;28;20151;-69
2021/07/20 10:48:11;;;;;;;0.80;0.68;;;29.50;98.00;;;;;;5089591;28;20276;-68
2021/07/20 10:50:55;;;;;;;0.80;0.65;;;28.90;98.00;;;;;;5089537;28;20191;-68
2021/07/20 10:53:24;;;;;;;0.57;0.57;;;29.40;97.20;;;;;;5091423;28;20167;-68
2021/07/20 10:55:53;;;;;;;0.95;0.85;;;29.60;97.90;;;;;;5090896;28;20175;-68
2021/07/20 10:58:32;;;;;;;2.20;1.55;;;29.40;97.60;;;;;;5089930;28;20178;-68
2021/07/20 11:01:20;;;;;;;3.17;1.00;;;29.50;97.90;;;;;;5091017;28;20203;-68
2021/07/20 11:04:16;;;;;;;1.02;0.88;;;30.20;96.60;;;;;;5091021;28;20231;-69
2021/07/20 11:06:45;;;;;;;0.63;0.47;;;31.20;97.10;;;;;;5091218;28;20159;-68
2021/07/20 11:09:19;;;;;;;1.30;0.90;;;29.00;97.40;;;;;;5090945;28;20273;-69
2021/07/20 11:11:53;;;;;;;1.73;1.05;;;28.90;97.80;;;;;;5091079;28;20558;-69
2021/07/20 11:14:26;;;;;;;0.70;0.70;;;28.40;98.00;;;;;;5090840;28;20155;-69
2021/07/20 11:16:54;;;;;;;0.35;0.35;;;27.80;98.50;;;;;;5090765;28;20156;-69
2021/07/20 11:19:20;;;;;;;2.30;1.10;;;28.80;97.70;;;;;;5090025;28;20195;-68
2021/07/20 11:21:47;;;;;;;1.45;1.00;;;28.90;97.50;;;;;;5090641;28;20159;-69
2021/07/20 11:24:16;;;;;;;5.30;1.55;;;29.90;96.50;;;;;;5090757;28;20219;-68
2021/07/20 11:26:42;;;;;;;0.75;0.75;;;30.00;97.00;;;;;;5090540;28;20152;-68
2021/07/20 11:29:09;;;;;;;1.92;1.15;;;29.40;97.50;;;;;;5090032;28;20210;-68
2021/07/20 11:31:49;;;;;;;1.27;0.82;;;29.20;97.60;;;;;;5090764;28;20156;-69
2021/07/20 11:34:23;;;;;;;1.40;0.90;;;30.20;97.00;;;;;;5088934;28;20166;-69
2021/07/20 11:36:53;;;;;;;1.95;1.10;;;30.00;96.90;;;;;;5076462;28;20176;-69
2021/07/20 11:39:27;;;;;;;2.58;1.00;;;30.60;95.30;;;;;;5074033;28;20282;-69
2021/07/20 11:42:12;;;;;;;3.78;1.17;;;29.30;95.80;;;;;;5090428;28;20163;-69
2021/07/20 11:44:58;;;;;;;1.27;0.68;;;28.10;97.00;;;;;;5090180;28;20163;-69
2021/07/20 11:47:40;;;;;;;2.95;1.35;;;28.70;97.00;;;;;;5088349;28;20227;-69
2021/07/20 11:50:09;;;;;;;0.90;0.82;;;29.10;96.80;;;;;;5090297;28;20225;-69
2021/07/20 11:52:54;;;;;;;1.05;0.85;;;29.80;96.60;;;;;;5088943;28;20159;-69
2021/07/20 11:55:39;;;;;;;0.60;0.60;;;29.70;96.90;;;;;;5090126;28;20159;-69
2021/07/20 11:58:17;;;;;;;1.38;0.68;;;29.80;97.20;;;;;;5090116;28;20222;-70
2021/07/20 12:00:45;;;;;;;3.00;1.13;;;30.70;95.80;;;;;;5089594;28;20234;-69
2021/07/20 12:03:19;;;;;;;0.88;0.63;;;29.70;96.30;;;;;;5088591;28;20252;-69
2021/07/20 12:06:20;;;;;;;0.73;0.73;;;29.60;97.30;;;;;;5089864;28;20330;-70
2021/07/20 12:08:51;;;;;;;1.13;0.70;;;29.30;97.00;;;;;;5089240;28;20191;-69
2021/07/20 12:11:20;;;;;;;0.30;0.30;;;30.40;96.60;;;;;;5088393;28;20199;-69
2021/07/20 12:13:47;;;;;;;1.13;1.00;;;30.80;95.00;;;;;;5089715;28;20155;-70
2021/07/20 12:16:15;;;;;;;0.82;0.65;;;30.90;94.90;;;;;;5089679;28;20155;-69
2021/07/20 12:18:48;;;;;;;0.73;0.73;;;30.50;95.50;;;;;;5089662;28;20250;-69
2021/07/20 12:21:19;;;;;;;0.52;0.50;;;29.30;97.20;;;;;;5089047;28;20252;-69
2021/07/20 12:23:45;;;;;;;1.75;0.80;;;28.90;96.60;;;;;;5089613;28;20160;-70
2021/07/20 12:26:12;;;;;;;2.53;1.67;;;28.70;96.50;;;;;;5089594;28;20224;-69
2021/07/20 12:28:43;;;;;;;1.17;1.05;;;28.20;96.80;;;;;;5089602;28;20250;-68
2021/07/20 12:31:12;;;;;;;0.52;0.52;;;27.70;97.40;;;;;;5088813;28;20240;-68
2021/07/20 12:33:44;;;;;;;1.70;1.00;;;27.60;97.50;;;;;;5089394;28;20170;-69
2021/07/20 12:36:12;;;;;;;1.10;1.00;;;28.00;99.70;;;;;;5089048;28;20176;-69
2021/07/20 12:38:39;;;;;;;1.02;0.77;;;28.30;97.80;;;;;;5089059;28;20686;-69
2021/07/20 12:41:10;;;;;;;0.95;0.52;;;27.80;97.80;;;;;;5088870;28;20188;-69
2021/07/20 12:43:40;;;;;;;3.05;0.90;;;27.40;98.60;;;;;;5087772;28;20195;-69
2021/07/20 12:46:20;;;;;;;1.58;0.82;;;27.50;98.70;;;;;;5089031;28;20197;-69
2021/07/20 12:48:49;;;;;;;3.63;2.30;;;27.50;98.90;;;;;;5089090;28;20203;-69
2021/07/20 12:51:16;;;;;;;2.95;1.35;;;27.70;98.70;;;;;;5087061;28;20203;-69
2021/07/20 12:53:44;;;;;;;1.55;1.45;;;28.20;99.40;;;;;;5087563;28;20156;-67
2021/07/20 12:56:17;;;;;;;0.88;0.88;;;28.80;99.90;;;;;;5088935;28;20156;-69
2021/07/20 12:58:44;;;;;;;9.95;0.90;;;29.40;98.10;;;;;;5089037;28;20246;-70
2021/07/20 13:01:14;;;;;;;1.13;0.75;;;29.30;98.80;;;;;;5088344;28;20679;-69
2021/07/20 13:03:42;;;;;;;1.75;1.02;;;29.40;97.00;;;;;;5087631;28;20179;-69
2021/07/20 13:06:08;;;;;;;1.95;0.57;;;29.50;96.70;;;;;;5087462;28;20183;-69
2021/07/20 13:08:34;;;;;;;1.52;1.15;;;29.20;96.70;;;;;;5087402;28;20223;-70
2021/07/20 13:11:01;;;;;;;1.48;1.38;;;29.10;97.60;;;;;;5088815;28;20239;-69
2021/07/20 13:13:29;;;;;;;1.05;0.93;;;28.90;96.70;;;;;;5087629;28;20191;-69